createdAt,value
2017-12-05T00:01:16.103Z,1.50
2017-12-05T00:03:43.598Z,1.50
2017-12-05T00:06:11.103Z,1.50
2017-12-05T00:08:38.622Z,1.50
2017-12-05T00:11:06.113Z,1.60
2017-12-05T00:13:33.622Z,1.50
2017-12-05T00:16:01.118Z,1.50
2017-12-05T00:18:29.403Z,1.50
2017-12-05T00:20:56.904Z,1.50
2017-12-05T00:23:24.419Z,1.60
2017-12-05T00:25:51.915Z,1.60
2017-12-05T00:28:19.431Z,1.60
2017-12-05T00:30:46.926Z,1.50
2017-12-05T00:33:14.439Z,1.60
2017-12-05T00:35:42.707Z,1.60
2017-12-05T00:38:11.015Z,1.60
2017-12-05T00:40:38.510Z,1.60
2017-12-05T00:43:06.002Z,1.60
2017-12-05T00:45:34.282Z,1.60
2017-12-05T00:48:02.549Z,1.70
2017-12-05T00:50:30.830Z,1.70
2017-12-05T00:52:59.099Z,1.70
2017-12-05T00:55:27.383Z,1.70
2017-12-05T00:57:55.643Z,1.70
2017-12-05T01:00:23.163Z,1.70
2017-12-05T01:02:50.654Z,1.80
2017-12-05T01:05:18.172Z,1.70
2017-12-05T01:07:45.671Z,1.70
2017-12-05T01:10:13.192Z,1.70
2017-12-05T01:12:40.682Z,1.70
2017-12-05T01:15:08.178Z,1.80
2017-12-05T01:17:35.698Z,1.80
2017-12-05T01:20:03.200Z,1.70
2017-12-05T01:22:30.714Z,1.70
2017-12-05T01:24:58.210Z,1.70
2017-12-05T01:27:25.731Z,1.60
2017-12-05T01:29:53.226Z,1.70
2017-12-05T01:32:20.738Z,1.70
2017-12-05T01:34:48.232Z,1.80
2017-12-05T01:37:16.537Z,1.70
2017-12-05T01:39:44.036Z,1.70
2017-12-05T01:42:11.534Z,1.70
2017-12-05T01:44:39.056Z,1.60
2017-12-05T01:47:06.552Z,1.60
2017-12-05T01:49:34.071Z,1.60
2017-12-05T01:52:01.571Z,1.60
2017-12-05T01:54:29.090Z,1.60
2017-12-05T01:56:56.594Z,1.60
2017-12-05T01:59:24.110Z,1.60
2017-12-05T02:01:51.608Z,1.50
2017-12-05T02:04:19.114Z,1.60
2017-12-05T02:06:46.615Z,1.50
2017-12-05T02:09:14.140Z,1.50
2017-12-05T02:11:41.660Z,1.60
2017-12-05T02:14:09.158Z,1.60
2017-12-05T02:16:36.674Z,1.50
2017-12-05T02:19:04.177Z,1.60
2017-12-05T02:21:32.458Z,1.50
2017-12-05T02:24:00.727Z,1.60
2017-12-05T02:26:29.018Z,1.60
2017-12-05T02:28:57.281Z,1.50
2017-12-05T02:31:25.548Z,1.50
2017-12-05T02:33:53.068Z,1.50
2017-12-05T02:36:20.564Z,1.50
2017-12-05T02:38:48.087Z,1.50
2017-12-05T02:41:15.582Z,1.60
2017-12-05T02:43:43.101Z,1.50
2017-12-05T02:46:10.598Z,1.50
2017-12-05T02:48:38.114Z,1.50
2017-12-05T02:51:05.606Z,1.40
2017-12-05T02:53:33.119Z,1.50
2017-12-05T02:56:00.615Z,1.50
2017-12-05T02:58:28.146Z,1.50
2017-12-05T03:00:55.640Z,1.40
2017-12-05T03:03:23.135Z,1.40
2017-12-05T03:05:50.658Z,1.40
2017-12-05T03:08:18.156Z,1.50
2017-12-05T03:10:45.675Z,1.50
2017-12-05T03:13:13.178Z,1.40
2017-12-05T03:15:40.695Z,1.40
2017-12-05T03:18:08.196Z,1.40
2017-12-05T03:20:35.715Z,1.50
2017-12-05T03:23:03.977Z,1.40
2017-12-05T03:25:31.494Z,1.40
2017-12-05T03:27:58.994Z,1.40
2017-12-05T03:30:26.851Z,1.40
2017-12-05T03:32:54.354Z,1.40
2017-12-05T03:35:21.870Z,1.50
2017-12-05T03:37:49.367Z,1.50
2017-12-05T03:40:16.876Z,1.50
2017-12-05T03:42:44.399Z,1.40
2017-12-05T03:45:11.895Z,1.40
2017-12-05T03:47:39.414Z,1.40
2017-12-05T03:50:06.909Z,1.40
2017-12-05T03:52:34.419Z,1.50
2017-12-05T03:55:01.919Z,1.50
2017-12-05T03:57:29.434Z,1.50
2017-12-05T03:59:56.930Z,1.50
2017-12-05T04:02:24.454Z,1.50
2017-12-05T04:04:51.954Z,1.50
2017-12-05T04:07:19.482Z,1.50
2017-12-05T04:09:46.976Z,1.40
2017-12-05T04:12:14.474Z,1.40
2017-12-05T04:14:41.995Z,1.50
2017-12-05T04:17:09.513Z,1.40
2017-12-05T04:19:37.031Z,1.40
2017-12-05T04:22:05.291Z,1.50
2017-12-05T04:24:32.842Z,1.40
2017-12-05T04:27:00.335Z,1.40
2017-12-05T04:29:28.615Z,1.40
2017-12-05T04:31:56.870Z,1.40
2017-12-05T04:34:25.150Z,1.30
2017-12-05T04:36:53.410Z,1.40
2017-12-05T04:39:20.935Z,1.30
2017-12-05T04:41:48.430Z,1.40
2017-12-05T04:44:15.970Z,1.40
2017-12-05T04:46:43.474Z,1.40
2017-12-05T04:49:10.978Z,1.40
2017-12-05T04:51:38.495Z,1.40
2017-12-05T04:54:05.995Z,1.40
2017-12-05T04:56:33.515Z,1.40
2017-12-05T04:59:01.019Z,1.40
2017-12-05T05:01:28.538Z,1.40
2017-12-05T05:03:56.043Z,1.40
2017-12-05T05:06:23.559Z,1.40
2017-12-05T05:08:51.055Z,1.40
2017-12-05T05:11:18.568Z,1.40
2017-12-05T05:13:46.066Z,1.40
2017-12-05T05:16:13.567Z,1.30
2017-12-05T05:18:41.847Z,1.40
2017-12-05T05:21:09.347Z,1.30
2017-12-05T05:23:36.858Z,1.40
2017-12-05T05:26:05.118Z,1.40
2017-12-05T05:28:33.395Z,1.40
2017-12-05T05:31:01.655Z,1.30
2017-12-05T05:33:29.168Z,1.30
2017-12-05T05:35:56.675Z,1.30
2017-12-05T05:38:24.187Z,1.30
2017-12-05T05:40:51.682Z,1.30
2017-12-05T05:43:19.191Z,1.30
2017-12-05T05:45:46.691Z,1.20
2017-12-05T05:48:14.206Z,1.20
2017-12-05T05:50:41.707Z,1.10
2017-12-05T05:53:09.203Z,1.00
2017-12-05T05:55:36.750Z,1.10
2017-12-05T05:58:05.015Z,1.20
2017-12-05T06:00:32.526Z,1.20
2017-12-05T06:03:00.020Z,1.20
2017-12-05T06:05:27.531Z,1.30
2017-12-05T06:07:55.026Z,1.20
2017-12-05T06:12:56.415Z,1.20
2017-12-05T06:15:24.719Z,1.20
2017-12-05T06:17:52.231Z,1.20
2017-12-05T06:20:19.725Z,1.20
2017-12-05T06:22:48.003Z,1.20
2017-12-05T06:25:16.258Z,1.30
2017-12-05T06:27:43.772Z,1.30
2017-12-05T06:30:11.272Z,1.30
2017-12-05T06:32:38.785Z,1.20
2017-12-05T06:35:06.274Z,1.20
2017-12-05T06:37:33.798Z,1.20
2017-12-05T06:40:01.291Z,1.20
2017-12-05T06:42:28.783Z,1.20
2017-12-05T06:44:57.066Z,1.20
2017-12-05T06:47:24.563Z,1.10
2017-12-05T06:49:52.071Z,1.20
2017-12-05T06:52:20.326Z,1.10
2017-12-05T06:54:47.838Z,1.10
2017-12-05T06:57:15.339Z,1.30
2017-12-05T06:59:42.855Z,1.30
2017-12-05T07:02:10.359Z,1.40
2017-12-05T07:04:38.659Z,1.50
2017-12-05T07:07:06.922Z,1.60
2017-12-05T07:09:35.184Z,1.60
2017-12-05T07:12:02.704Z,1.60
2017-12-05T07:14:30.202Z,1.60
2017-12-05T07:16:57.718Z,1.60
2017-12-05T07:19:25.210Z,1.80
2017-12-05T07:21:52.726Z,1.70
2017-12-05T07:24:20.227Z,1.70
2017-12-05T07:26:47.769Z,1.70
2017-12-05T07:29:15.276Z,1.80
2017-12-05T07:31:42.821Z,1.80
2017-12-05T07:34:11.091Z,1.80
2017-12-05T07:36:39.354Z,1.90
2017-12-05T07:39:06.870Z,1.90
2017-12-05T07:41:34.391Z,1.70
2017-12-05T07:46:36.657Z,1.90
2017-12-05T07:49:04.186Z,2.00
2017-12-05T07:51:31.693Z,2.10
2017-12-05T07:53:59.962Z,2.10
2017-12-05T07:56:28.247Z,2.20
2017-12-05T07:58:56.524Z,2.40
2017-12-05T08:01:24.815Z,2.30
2017-12-05T08:03:52.319Z,2.30
2017-12-05T08:06:19.843Z,2.40
2017-12-05T08:08:47.366Z,2.30
2017-12-05T08:11:15.659Z,2.50
2017-12-05T08:13:43.188Z,2.40
2017-12-05T08:16:10.723Z,2.60
2017-12-05T08:18:38.232Z,2.50
2017-12-05T08:21:05.762Z,2.50
2017-12-05T08:23:34.051Z,2.40
2017-12-05T08:26:02.364Z,2.60
2017-12-05T08:28:29.883Z,2.60
2017-12-05T08:30:58.168Z,2.60
2017-12-05T08:33:26.471Z,2.60
2017-12-05T08:35:53.975Z,2.50
2017-12-05T08:38:21.499Z,2.60
2017-12-05T08:40:49.019Z,2.60
2017-12-05T08:43:17.294Z,2.60
2017-12-05T08:45:45.558Z,2.60
2017-12-05T08:48:13.094Z,2.60
2017-12-05T08:50:40.593Z,2.70
2017-12-05T08:53:08.095Z,2.90
2017-12-05T08:55:35.611Z,2.90
2017-12-05T08:58:03.882Z,3.00
2017-12-05T09:00:32.166Z,2.90
2017-12-05T09:02:59.665Z,2.80
2017-12-05T09:05:27.183Z,2.90
2017-12-05T09:07:54.683Z,2.80
2017-12-05T09:10:22.212Z,2.90
2017-12-05T09:12:49.711Z,2.90
2017-12-05T09:15:17.205Z,3.10
2017-12-05T09:17:45.486Z,3.00
2017-12-05T09:20:13.755Z,3.00
2017-12-05T09:22:42.039Z,3.30
2017-12-05T09:25:10.299Z,3.40
2017-12-05T09:27:38.598Z,3.30
2017-12-05T09:32:39.973Z,3.30
2017-12-05T09:35:07.474Z,3.40
2017-12-05T09:37:34.974Z,3.50
2017-12-05T09:40:02.495Z,3.40
2017-12-05T09:42:29.991Z,3.40
2017-12-05T09:44:57.506Z,3.50
2017-12-05T09:47:25.003Z,3.80
2017-12-05T09:49:53.298Z,3.80
2017-12-05T09:52:20.790Z,3.70
2017-12-05T09:54:48.291Z,3.60
2017-12-05T09:57:16.575Z,3.80
2017-12-05T09:59:44.074Z,3.80
2017-12-05T10:02:11.591Z,3.90
2017-12-05T10:04:39.097Z,3.90
2017-12-05T10:07:06.610Z,3.80
2017-12-05T10:09:34.107Z,3.80
2017-12-05T10:12:03.066Z,3.70
2017-12-05T10:14:30.608Z,3.70
2017-12-05T10:16:59.110Z,3.50
2017-12-05T10:19:27.611Z,3.50
2017-12-05T10:21:55.115Z,3.50
2017-12-05T10:24:23.398Z,3.80
2017-12-05T10:26:51.658Z,3.60
2017-12-05T10:29:19.175Z,3.60
2017-12-05T10:31:46.681Z,3.60
2017-12-05T10:34:14.966Z,3.80
2017-12-05T10:36:43.279Z,3.50
2017-12-05T10:39:10.814Z,3.50
2017-12-05T10:41:38.343Z,3.60
2017-12-05T10:44:05.861Z,3.90
2017-12-05T10:46:33.375Z,3.80
2017-12-05T10:49:01.672Z,3.70
2017-12-05T10:51:29.192Z,3.70
2017-12-05T10:53:56.691Z,3.80
2017-12-05T10:56:24.212Z,3.80
2017-12-05T10:58:52.572Z,3.80
2017-12-05T11:01:20.183Z,3.80
2017-12-05T11:03:47.687Z,3.80
2017-12-05T11:06:15.271Z,3.80
2017-12-05T11:08:43.535Z,3.90
2017-12-05T11:11:11.066Z,3.90
2017-12-05T11:13:38.567Z,4.00
2017-12-05T11:16:06.859Z,4.00
2017-12-05T11:18:35.299Z,4.00
2017-12-05T11:21:02.855Z,4.10
2017-12-05T11:23:30.354Z,4.10
2017-12-05T11:25:58.630Z,4.10
2017-12-05T11:28:26.134Z,4.10
2017-12-05T11:30:53.646Z,4.00
2017-12-05T11:33:21.162Z,4.00
2017-12-05T11:35:49.494Z,4.20
2017-12-05T11:38:16.991Z,4.20
2017-12-05T11:40:44.555Z,4.20
2017-12-05T11:43:12.055Z,4.00
2017-12-05T11:45:40.338Z,4.00
2017-12-05T11:48:07.832Z,4.00
2017-12-05T11:50:35.335Z,4.10
2017-12-05T11:53:03.614Z,4.10
2017-12-05T11:55:31.895Z,4.10
2017-12-05T11:58:00.179Z,3.90
2017-12-05T12:00:27.701Z,3.90
2017-12-05T12:02:55.282Z,3.90
2017-12-05T12:05:23.634Z,3.90
2017-12-05T12:07:51.209Z,4.10
2017-12-05T12:10:19.491Z,3.90
2017-12-05T12:12:47.771Z,3.90
2017-12-05T12:15:16.041Z,4.00
2017-12-05T12:17:44.322Z,3.90
2017-12-05T12:20:12.583Z,3.80
2017-12-05T12:22:40.172Z,3.80
2017-12-05T12:25:07.671Z,4.00
2017-12-05T12:27:35.934Z,3.80
2017-12-05T12:30:03.457Z,3.80
2017-12-05T12:32:31.727Z,3.90
2017-12-05T12:35:00.004Z,4.00
2017-12-05T12:37:28.262Z,3.80
2017-12-05T12:39:55.799Z,3.80
2017-12-05T12:42:23.303Z,3.80
2017-12-05T12:44:51.573Z,3.70
2017-12-05T12:47:19.860Z,3.80
2017-12-05T12:49:47.354Z,3.80
2017-12-05T12:52:14.870Z,3.80
2017-12-05T12:54:43.138Z,3.70
2017-12-05T12:57:11.425Z,3.60
2017-12-05T12:59:39.690Z,3.70
2017-12-05T13:02:07.970Z,3.70
2017-12-05T13:04:36.239Z,3.60
2017-12-05T13:07:04.528Z,3.40
2017-12-05T13:09:32.027Z,3.40
2017-12-05T13:11:59.834Z,3.40
2017-12-05T13:14:27.378Z,3.60
2017-12-05T13:16:54.890Z,3.50
2017-12-05T13:19:22.399Z,3.50
2017-12-05T13:21:49.914Z,3.50
2017-12-05T13:24:17.414Z,3.60
2017-12-05T13:26:44.935Z,3.50
2017-12-05T13:29:12.432Z,3.50
2017-12-05T13:31:39.960Z,3.60
2017-12-05T13:34:07.461Z,3.70
2017-12-05T13:36:35.727Z,3.70
2017-12-05T13:39:03.244Z,3.70
2017-12-05T13:41:30.744Z,3.50
2017-12-05T13:43:59.031Z,3.40
2017-12-05T13:46:27.302Z,3.50
2017-12-05T13:48:55.608Z,3.50
2017-12-05T13:51:23.098Z,3.50
2017-12-05T13:53:50.595Z,3.50
2017-12-05T13:56:18.871Z,3.50
2017-12-05T13:58:47.131Z,3.40
2017-12-05T14:01:14.646Z,3.40
2017-12-05T14:03:42.143Z,3.40
2017-12-05T14:06:09.663Z,3.30
2017-12-05T14:08:37.167Z,3.30
2017-12-05T14:11:04.682Z,3.20
2017-12-05T14:13:32.175Z,3.30
2017-12-05T14:15:59.671Z,3.30
2017-12-05T14:18:27.195Z,3.20
2017-12-05T14:20:54.692Z,3.30
2017-12-05T14:23:22.207Z,3.30
2017-12-05T14:25:49.713Z,3.20
2017-12-05T14:28:17.223Z,3.20
2017-12-05T14:30:44.728Z,3.10
2017-12-05T14:33:12.243Z,3.10
2017-12-05T14:35:39.747Z,3.10
2017-12-05T14:38:07.263Z,3.10
2017-12-05T14:40:35.532Z,3.20
2017-12-05T14:43:03.047Z,3.20
2017-12-05T14:45:30.547Z,3.20
2017-12-05T14:47:58.063Z,3.00
2017-12-05T14:50:25.563Z,3.00
2017-12-05T14:52:53.075Z,2.90
2017-12-05T14:55:20.567Z,2.80
2017-12-05T14:57:48.074Z,3.00
2017-12-05T15:00:15.589Z,3.00
2017-12-05T15:02:43.119Z,3.00
2017-12-05T15:05:10.616Z,3.00
2017-12-05T15:07:38.110Z,3.00
2017-12-05T15:10:05.635Z,2.90
2017-12-05T15:12:33.132Z,2.90
2017-12-05T15:15:00.647Z,2.80
2017-12-05T15:17:28.143Z,2.80
2017-12-05T15:19:55.658Z,2.90
2017-12-05T15:22:23.154Z,2.90
2017-12-05T15:24:50.667Z,2.80
2017-12-05T15:27:18.162Z,2.80
2017-12-05T15:29:45.678Z,2.60
2017-12-05T15:32:13.179Z,2.70
2017-12-05T15:34:40.716Z,2.70
2017-12-05T15:37:08.214Z,2.50
2017-12-05T15:39:35.731Z,2.60
2017-12-05T15:42:04.007Z,2.50
2017-12-05T15:44:32.294Z,2.40
2017-12-05T15:47:00.559Z,2.50
2017-12-05T15:49:28.846Z,2.50
2017-12-05T15:51:57.115Z,2.30
2017-12-05T15:54:25.420Z,2.40
2017-12-05T15:56:52.923Z,2.40
2017-12-05T15:59:20.424Z,2.30
2017-12-05T16:01:47.942Z,2.10
2017-12-05T16:04:15.435Z,1.80
2017-12-05T16:06:43.719Z,1.60
2017-12-05T16:09:11.219Z,1.60
2017-12-05T16:11:38.736Z,1.70
2017-12-05T16:14:06.242Z,1.70
2017-12-05T16:16:33.783Z,1.60
2017-12-05T16:19:01.282Z,1.50
2017-12-05T16:21:28.821Z,1.50
2017-12-05T16:23:56.343Z,1.50
2017-12-05T16:26:23.843Z,1.50
2017-12-05T16:28:51.364Z,1.30
2017-12-05T16:31:18.863Z,1.10
2017-12-05T16:33:46.381Z,0.90
2017-12-05T16:36:13.883Z,0.70
2017-12-05T16:38:41.426Z,0.60
2017-12-05T16:41:08.927Z,0.70
2017-12-05T16:43:37.200Z,0.80
2017-12-05T16:46:05.482Z,0.70
2017-12-05T16:48:32.982Z,0.70
2017-12-05T16:51:00.498Z,0.80
2017-12-05T16:53:27.995Z,1.10
2017-12-05T16:55:55.510Z,0.90
2017-12-05T16:58:23.011Z,0.60
2017-12-05T17:00:50.541Z,0.50
2017-12-05T17:03:18.059Z,0.30
2017-12-05T17:05:45.585Z,0.30
2017-12-05T17:08:13.095Z,0.30
2017-12-05T17:10:41.391Z,0.00
2017-12-05T17:13:08.925Z,0.00
2017-12-05T17:15:37.237Z,0.20
2017-12-05T17:18:04.743Z,0.20
2017-12-05T17:20:32.267Z,0.40
2017-12-05T17:22:59.767Z,0.50
2017-12-05T17:25:28.056Z,0.30
2017-12-05T17:27:56.315Z,0.30
2017-12-05T17:30:23.850Z,0.20
2017-12-05T17:32:51.355Z,0.20
2017-12-05T17:35:18.875Z,0.10
2017-12-05T17:37:46.383Z,0.30
2017-12-05T17:40:13.902Z,0.40
2017-12-05T17:42:42.186Z,0.60
2017-12-05T17:45:10.478Z,0.60
2017-12-05T17:47:38.762Z,0.70
2017-12-05T17:50:06.271Z,0.70
2017-12-05T17:52:33.795Z,0.80
2017-12-05T17:55:01.307Z,0.80
2017-12-05T17:57:29.603Z,0.60
2017-12-05T17:59:57.876Z,0.60
2017-12-05T18:02:26.160Z,0.60
2017-12-05T18:04:53.672Z,0.50
2017-12-05T18:07:21.204Z,0.50
2017-12-05T18:09:48.716Z,0.50
2017-12-05T18:12:17.051Z,0.30
2017-12-05T18:14:44.641Z,0.30
2017-12-05T18:17:12.121Z,0.40
2017-12-05T18:19:39.655Z,0.40
2017-12-05T18:22:07.176Z,0.40
2017-12-05T18:24:34.723Z,0.60
2017-12-05T18:27:02.241Z,0.70
2017-12-05T18:29:30.532Z,0.60
2017-12-05T18:31:58.799Z,0.60
2017-12-05T18:34:27.087Z,0.50
2017-12-05T18:36:55.356Z,0.40
2017-12-05T18:39:23.661Z,0.40
2017-12-05T18:41:51.167Z,0.30
2017-12-05T18:44:18.674Z,0.30
2017-12-05T18:46:46.203Z,0.20
2017-12-05T18:49:14.485Z,0.10
2017-12-05T18:51:42.767Z,0.00
2017-12-05T18:54:11.035Z,0.10
2017-12-05T18:56:39.323Z,0.30
2017-12-05T18:59:06.827Z,0.20
2017-12-05T19:01:35.112Z,0.20
2017-12-05T19:04:02.627Z,0.20
2017-12-05T19:06:30.147Z,0.20
2017-12-05T19:08:57.646Z,0.10
2017-12-05T19:11:25.155Z,0.10
2017-12-05T19:13:52.655Z,0.20
2017-12-05T19:16:20.176Z,0.20
2017-12-05T19:18:47.679Z,0.10
2017-12-05T19:21:15.190Z,0.00
2017-12-05T19:23:42.699Z,0.10
2017-12-05T19:26:11.047Z,0.10
2017-12-05T19:28:39.306Z,0.00
2017-12-05T19:31:06.822Z,0.00
2017-12-05T19:33:34.323Z,-0.10
2017-12-05T19:36:02.649Z,-0.10
2017-12-05T19:38:30.155Z,-0.10
2017-12-05T19:40:57.674Z,-0.20
2017-12-05T19:43:25.183Z,-0.30
2017-12-05T19:45:53.471Z,-0.20
2017-12-05T19:48:21.734Z,-0.20
2017-12-05T19:50:50.023Z,-0.10
2017-12-05T19:53:18.293Z,0.00
2017-12-05T19:55:46.575Z,0.00
2017-12-05T19:58:14.117Z,0.00
2017-12-05T20:00:42.383Z,0.10
2017-12-05T20:03:10.687Z,0.00
2017-12-05T20:05:38.187Z,0.00
2017-12-05T20:08:05.712Z,0.00
2017-12-05T20:10:33.219Z,0.00
2017-12-05T20:13:00.736Z,0.10
2017-12-05T20:15:28.239Z,0.10
2017-12-05T20:17:55.759Z,0.10
2017-12-05T20:20:23.270Z,0.30
2017-12-05T20:22:50.792Z,0.30
2017-12-05T20:25:18.299Z,0.40
2017-12-05T20:27:46.583Z,0.50
2017-12-05T20:30:14.855Z,0.50
2017-12-05T20:32:43.139Z,0.50
2017-12-05T20:35:10.655Z,0.50
2017-12-05T20:37:38.176Z,0.50
2017-12-05T20:40:05.738Z,0.40
2017-12-05T20:42:33.986Z,0.50
2017-12-05T20:45:02.255Z,0.50
2017-12-05T20:47:30.543Z,0.50
2017-12-05T20:49:58.043Z,0.50
2017-12-05T20:52:25.562Z,0.50
2017-12-05T20:54:53.071Z,0.60
2017-12-05T20:57:20.602Z,0.60
2017-12-05T20:59:48.102Z,0.60
2017-12-05T21:02:15.611Z,0.60
2017-12-05T21:04:43.288Z,0.60
2017-12-05T21:07:10.849Z,0.60
2017-12-05T21:09:38.378Z,0.60
2017-12-05T21:12:05.919Z,0.60
2017-12-05T21:14:33.500Z,0.60
2017-12-05T21:17:01.060Z,0.60
2017-12-05T21:19:28.602Z,0.60
2017-12-05T21:21:56.940Z,0.60
2017-12-05T21:24:24.450Z,0.50
2017-12-05T21:26:51.967Z,0.60
2017-12-05T21:29:19.466Z,0.60
2017-12-05T21:31:46.987Z,0.70
2017-12-05T21:34:14.546Z,0.70
2017-12-05T21:36:42.063Z,0.70
2017-12-05T21:39:09.553Z,0.70
2017-12-05T21:41:37.067Z,0.70
2017-12-05T21:44:04.570Z,0.70
2017-12-05T21:46:32.087Z,0.70
2017-12-05T21:48:59.589Z,0.70
2017-12-05T21:51:27.114Z,0.70
2017-12-05T21:53:54.614Z,0.70
2017-12-05T21:56:22.131Z,0.60
2017-12-05T21:58:49.630Z,0.70
2017-12-05T22:01:17.919Z,0.80
2017-12-05T22:03:46.201Z,0.70
2017-12-05T22:06:13.737Z,0.70
2017-12-05T22:08:41.230Z,0.70
2017-12-05T22:11:08.731Z,0.80
2017-12-05T22:13:36.247Z,0.80
2017-12-05T22:16:03.746Z,0.70
2017-12-05T22:18:31.262Z,0.70
2017-12-05T22:20:58.768Z,0.60
2017-12-05T22:23:26.286Z,0.60
2017-12-05T22:25:53.782Z,0.50
2017-12-05T22:28:21.304Z,0.50
2017-12-05T22:30:48.810Z,0.50
2017-12-05T22:33:16.322Z,0.40
2017-12-05T22:35:43.822Z,0.40
2017-12-05T22:38:11.343Z,0.40
2017-12-05T22:40:38.834Z,0.40
2017-12-05T22:43:06.360Z,0.50
2017-12-05T22:45:33.863Z,0.50
2017-12-05T22:48:01.387Z,0.50
2017-12-05T22:50:28.886Z,0.50
2017-12-05T22:52:57.174Z,0.50
2017-12-05T22:55:25.439Z,0.40
2017-12-05T22:57:53.718Z,0.40
2017-12-05T23:00:21.982Z,0.30
2017-12-05T23:02:49.520Z,0.30
2017-12-05T23:05:17.014Z,0.20
2017-12-05T23:07:45.275Z,0.10
2017-12-05T23:10:12.792Z,0.20
2017-12-05T23:12:40.298Z,0.10
2017-12-05T23:15:08.589Z,0.10
2017-12-05T23:17:36.855Z,0.10
2017-12-05T23:20:05.154Z,0.10
2017-12-05T23:22:32.654Z,0.10
2017-12-05T23:25:00.168Z,0.10
2017-12-05T23:27:27.662Z,0.00
2017-12-05T23:29:55.184Z,-0.10
2017-12-05T23:32:22.686Z,-0.20
2017-12-05T23:34:50.222Z,-0.20
2017-12-05T23:37:17.726Z,-0.30
2017-12-05T23:39:45.232Z,-0.40
2017-12-05T23:42:12.759Z,-0.40
2017-12-05T23:44:41.027Z,-0.50
2017-12-05T23:47:09.315Z,-0.50
2017-12-05T23:49:37.586Z,-0.50
2017-12-05T23:52:05.875Z,-0.50
2017-12-05T23:54:33.379Z,-0.50
2017-12-05T23:57:00.899Z,-0.50
2017-12-05T23:59:28.407Z,-0.50
